Terminal Aerodrome Forecast
Issued by NWS

Home | Current Version | Previous Version | Text Only | Print | Product List | Glossary On
Versions: 1 2 3 4 5 6 7 8 9 10 11 12 13 14 15 16 17 18 19 20
000
FTUS43 KSGF 191200 AAA
TAFBBG
TAF AMD
KBBG 191259Z 1913/2012 VRB03KT 1/4SM FG OVC002
     FM191600 VRB03KT 2SM BR OVC003
     FM192000 VRB03KT 6SM BR OVC007
     FM200100 00000KT 2SM BR OVC003
     FM200700 VRB03KT 1SM BR OVC002=

USA.gov is the U.S. government's official web portal to all federal, state and local government web resources and services.